Time;durP1;ratioP1;P1;durP2;ratioP2;P2;SDS_P1;SDS_P2;PMS_P1;PMS_P2;Temp;Humidity;BMP_temperature;BMP_pressure;BME280_temperature;BME280_humidity;BME280_pressure;Samples;Min_cycle;Max_cycle;Signal;HPM_P1;HPM_P2
2023/08/23 00:00:51;;;;;;;11.38;3.78;;;17.20;99.90;;;;;;5015723;28;20037;-89
2023/08/23 00:03:17;;;;;;;9.52;3.85;;;17.20;99.90;;;;;;5032372;28;20048;-89
2023/08/23 00:05:43;;;;;;;8.10;3.40;;;17.20;99.90;;;;;;5048523;28;20414;-89
2023/08/23 00:08:09;;;;;;;8.02;3.53;;;17.10;99.90;;;;;;5048514;28;20060;-88
2023/08/23 00:10:35;;;;;;;8.15;3.33;;;17.10;99.90;;;;;;5031664;28;20495;-89
2023/08/23 00:13:00;;;;;;;9.27;4.00;;;17.10;99.90;;;;;;5031624;28;20040;-88
2023/08/23 00:15:26;;;;;;;9.25;4.00;;;17.10;99.90;;;;;;5015050;28;20041;-88
2023/08/23 00:17:52;;;;;;;7.60;3.30;;;17.10;99.90;;;;;;5048412;28;20044;-88
2023/08/23 00:20:18;;;;;;;10.38;4.30;;;17.10;99.90;;;;;;5031694;28;20049;-89
2023/08/23 00:22:43;;;;;;;9.43;3.63;;;17.00;99.90;;;;;;5015203;28;20044;-88
2023/08/23 00:25:09;;;;;;;8.77;4.03;;;17.00;99.90;;;;;;5015527;28;20072;-88
2023/08/23 00:27:35;;;;;;;9.13;3.80;;;17.00;99.90;;;;;;4998854;28;20456;-89
2023/08/23 00:30:00;;;;;;;11.38;4.30;;;17.00;99.90;;;;;;5024783;28;20517;-89
2023/08/23 00:32:26;;;;;;;10.55;4.35;;;17.00;99.90;;;;;;5027700;28;20064;-89
2023/08/23 00:34:52;;;;;;;9.35;4.18;;;17.00;99.90;;;;;;4995908;28;20369;-89
2023/08/23 00:37:18;;;;;;;9.52;4.05;;;17.00;99.90;;;;;;5031774;28;20644;-89
2023/08/23 00:39:43;;;;;;;10.48;4.32;;;16.90;99.90;;;;;;5014707;28;20064;-88
2023/08/23 00:42:10;;;;;;;9.52;4.07;;;17.00;99.90;;;;;;5031399;28;20041;-88
2023/08/23 00:44:35;;;;;;;9.20;4.50;;;16.90;99.90;;;;;;5014843;28;20045;-89
2023/08/23 00:47:02;;;;;;;8.70;4.18;;;16.90;99.90;;;;;;5014617;28;20090;-87
2023/08/23 00:49:33;;;;;;;9.20;3.85;;;16.90;99.90;;;;;;4998650;28;20037;-88
2023/08/23 00:52:01;;;;;;;9.77;4.10;;;16.80;99.90;;;;;;5031364;28;20098;-87
2023/08/23 00:54:27;;;;;;;9.18;3.90;;;16.80;99.90;;;;;;5031246;28;20410;-88
2023/08/23 00:56:55;;;;;;;9.30;4.55;;;16.80;99.90;;;;;;5014826;28;20041;-89
2023/08/23 00:59:21;;;;;;;9.07;4.05;;;16.80;99.90;;;;;;5031234;28;20098;-89
2023/08/23 01:01:48;;;;;;;10.57;4.28;;;16.80;99.90;;;;;;5031420;28;20037;-89
2023/08/23 01:04:14;;;;;;;10.48;3.92;;;16.80;99.90;;;;;;5047507;28;20047;-89
2023/08/23 01:06:46;;;;;;;8.63;3.80;;;16.80;99.90;;;;;;5031112;28;20049;-89
2023/08/23 01:09:12;;;;;;;10.35;4.63;;;16.70;99.90;;;;;;5032500;28;20041;-89
2023/08/23 01:11:47;;;;;;;9.20;3.97;;;16.70;99.90;;;;;;5033757;28;20045;-89
2023/08/23 01:14:28;;;;;;;10.18;4.35;;;16.70;99.90;;;;;;5035156;28;20072;-89
2023/08/23 01:16:56;;;;;;;10.73;4.68;;;16.70;99.90;;;;;;5035284;28;20045;-88
2023/08/23 01:19:45;;;;;;;9.95;4.45;;;16.60;99.90;;;;;;5034991;28;20045;-89
2023/08/23 01:22:22;;;;;;;9.35;4.13;;;16.60;99.90;;;;;;5035316;28;20119;-89
2023/08/23 01:24:48;;;;;;;9.65;4.35;;;16.60;99.90;;;;;;5035001;28;20048;-90
2023/08/23 01:27:16;;;;;;;8.48;3.90;;;16.60;99.90;;;;;;5035355;28;20048;-90
2023/08/23 01:29:44;;;;;;;10.18;4.53;;;16.60;99.90;;;;;;5035050;28;20037;-88
2023/08/23 01:32:39;;;;;;;11.80;5.20;;;16.60;99.90;;;;;;5051815;28;20045;-89
2023/08/23 01:35:18;;;;;;;9.15;4.28;;;16.60;99.90;;;;;;5051284;28;20063;-89
2023/08/23 01:37:54;;;;;;;10.63;4.60;;;16.50;99.90;;;;;;5051425;28;20048;-91
2023/08/23 01:40:21;;;;;;;11.35;4.75;;;16.50;99.90;;;;;;5034341;28;20122;-89
2023/08/23 01:42:48;;;;;;;13.10;5.30;;;16.60;99.90;;;;;;5035094;28;20060;-88
2023/08/23 01:45:13;;;;;;;13.07;4.75;;;16.50;99.90;;;;;;5051468;28;20134;-89
2023/08/23 01:47:39;;;;;;;9.75;4.80;;;16.50;99.90;;;;;;5018750;28;20045;-89
2023/08/23 01:50:05;;;;;;;10.40;4.93;;;16.50;99.90;;;;;;5018119;28;20410;-89
2023/08/23 01:52:31;;;;;;;9.63;4.32;;;16.50;99.90;;;;;;5018926;28;20371;-89
2023/08/23 01:54:57;;;;;;;11.00;4.60;;;16.50;99.90;;;;;;5034226;28;20060;-90
2023/08/23 01:57:22;;;;;;;9.52;4.60;;;16.50;99.90;;;;;;5034664;28;20037;-89
2023/08/23 01:59:50;;;;;;;11.23;4.88;;;16.50;99.90;;;;;;5017908;28;20044;-89
2023/08/23 02:02:16;;;;;;;10.32;4.57;;;16.50;99.90;;;;;;5034502;28;20067;-90
2023/08/23 02:04:42;;;;;;;13.45;4.35;;;16.40;99.90;;;;;;5018146;28;20040;-90
2023/08/23 02:07:07;;;;;;;10.00;4.82;;;16.40;99.90;;;;;;5017737;28;20487;-89
2023/08/23 02:09:33;;;;;;;8.82;4.20;;;16.40;99.90;;;;;;5017381;28;20564;-89
2023/08/23 02:11:59;;;;;;;10.48;4.88;;;16.40;99.90;;;;;;5001538;28;20044;-88
2023/08/23 02:14:25;;;;;;;10.48;4.53;;;16.40;99.90;;;;;;5017421;28;20118;-89
2023/08/23 02:16:51;;;;;;;10.32;4.72;;;16.30;99.90;;;;;;5034070;28;20049;-89
2023/08/23 02:19:17;;;;;;;10.63;5.03;;;16.30;99.90;;;;;;5017294;28;20123;-89
2023/08/23 02:21:42;;;;;;;10.73;5.03;;;16.20;99.90;;;;;;5017116;28;20052;-89
2023/08/23 02:24:08;;;;;;;10.82;5.63;;;16.20;99.90;;;;;;5001067;28;20048;-89
2023/08/23 02:26:37;;;;;;;10.23;4.82;;;16.20;99.90;;;;;;5033396;28;20387;-87
2023/08/23 02:29:03;;;;;;;10.13;4.82;;;16.20;99.90;;;;;;5050127;28;20540;-89
2023/08/23 02:31:29;;;;;;;10.65;5.32;;;16.20;99.90;;;;;;5017736;28;20033;-89
2023/08/23 02:33:55;;;;;;;11.75;5.43;;;16.20;99.90;;;;;;5017646;28;20036;-89
2023/08/23 02:36:21;;;;;;;10.27;5.28;;;16.20;99.90;;;;;;5033446;28;20513;-90
2023/08/23 02:38:46;;;;;;;11.35;5.22;;;16.20;99.90;;;;;;5016760;28;20044;-89
2023/08/23 02:41:12;;;;;;;9.57;4.68;;;16.20;99.90;;;;;;5033308;28;20068;-88
2023/08/23 02:43:38;;;;;;;10.05;5.20;;;16.20;99.90;;;;;;5033513;28;20044;-88
2023/08/23 02:46:04;;;;;;;10.05;4.82;;;16.10;99.90;;;;;;5033222;28;20056;-90
2023/08/23 02:48:30;;;;;;;9.25;4.60;;;16.20;99.90;;;;;;5016839;28;20049;-89
2023/08/23 02:50:56;;;;;;;9.63;4.93;;;16.20;99.90;;;;;;5016587;28;20044;-90
2023/08/23 02:53:22;;;;;;;10.98;4.80;;;16.20;99.90;;;;;;5049872;28;20051;-90
2023/08/23 02:55:48;;;;;;;11.15;5.13;;;16.10;99.90;;;;;;5033280;28;20037;-90
2023/08/23 02:58:13;;;;;;;11.30;5.47;;;16.10;99.90;;;;;;5049400;28;20048;-90
2023/08/23 03:00:39;;;;;;;10.60;5.10;;;16.10;99.90;;;;;;5032739;28;20044;-90
2023/08/23 03:03:05;;;;;;;10.63;5.18;;;16.00;99.90;;;;;;5016557;28;20033;-87
2023/08/23 03:05:31;;;;;;;10.23;5.03;;;16.00;99.90;;;;;;5032990;28;20045;-89
2023/08/23 03:07:56;;;;;;;10.07;4.75;;;16.00;99.90;;;;;;5016495;28;20045;-89
2023/08/23 03:10:22;;;;;;;11.45;5.43;;;16.00;99.90;;;;;;5016427;28;20041;-89
2023/08/23 03:12:48;;;;;;;11.15;5.90;;;16.00;99.90;;;;;;5016111;28;20433;-90
2023/08/23 03:15:14;;;;;;;12.43;5.63;;;16.00;99.90;;;;;;5032637;28;20037;-89
2023/08/23 03:17:40;;;;;;;11.75;5.65;;;16.00;99.90;;;;;;5049511;28;20133;-90
2023/08/23 03:20:06;;;;;;;11.75;6.07;;;16.00;99.90;;;;;;5016364;28;20383;-90
2023/08/23 03:22:32;;;;;;;11.70;5.38;;;16.00;99.90;;;;;;4999977;28;20192;-90
2023/08/23 03:24:57;;;;;;;12.30;6.30;;;16.10;99.90;;;;;;5032687;28;20484;-89
2023/08/23 03:27:24;;;;;;;11.10;6.03;;;16.10;99.90;;;;;;5049120;28;20057;-90
2023/08/23 03:29:50;;;;;;;11.15;5.82;;;16.00;99.90;;;;;;5016502;28;20095;-90
2023/08/23 03:32:17;;;;;;;11.18;5.90;;;16.10;99.90;;;;;;5031874;28;20045;-90
2023/08/23 03:34:43;;;;;;;10.15;5.38;;;16.00;99.90;;;;;;5016272;28;20041;-89
2023/08/23 03:37:09;;;;;;;10.63;5.05;;;16.00;99.90;;;;;;5032469;28;20049;-90
2023/08/23 03:39:35;;;;;;;10.10;5.20;;;15.90;99.90;;;;;;5015577;28;20064;-89
2023/08/23 03:42:00;;;;;;;10.02;5.10;;;15.90;99.90;;;;;;5032367;28;20045;-89
2023/08/23 03:44:26;;;;;;;10.07;4.97;;;15.90;99.90;;;;;;4999637;28;20044;-90
2023/08/23 03:46:52;;;;;;;10.05;5.03;;;15.90;99.90;;;;;;4999410;28;20483;-89
2023/08/23 03:49:17;;;;;;;11.02;5.00;;;15.90;99.90;;;;;;5048507;28;20076;-89
2023/08/23 03:51:43;;;;;;;11.27;5.32;;;15.90;99.90;;;;;;5015871;28;20428;-88
2023/08/23 03:54:09;;;;;;;11.25;5.47;;;15.90;99.90;;;;;;4999071;28;20037;-90
2023/08/23 03:56:34;;;;;;;11.27;5.45;;;16.00;99.90;;;;;;5032268;28;20119;-88
2023/08/23 03:59:00;;;;;;;11.10;5.78;;;15.90;99.90;;;;;;5015875;28;20045;-90
2023/08/23 04:01:26;;;;;;;13.30;5.85;;;15.90;99.90;;;;;;5015518;28;20044;-89
2023/08/23 04:03:52;;;;;;;11.30;5.15;;;15.90;99.90;;;;;;5015312;28;20044;-90
2023/08/23 04:06:17;;;;;;;10.90;5.05;;;15.90;99.90;;;;;;5015830;28;20039;-88
2023/08/23 04:08:43;;;;;;;9.75;4.70;;;15.90;99.90;;;;;;5031900;28;20543;-89
2023/08/23 04:11:09;;;;;;;11.52;4.88;;;15.90;99.90;;;;;;5028478;28;20091;-89
2023/08/23 04:13:34;;;;;;;12.10;4.60;;;15.80;99.90;;;;;;5010832;28;20039;-89
2023/08/23 04:16:00;;;;;;;9.88;4.82;;;15.80;99.90;;;;;;5031787;28;20041;-89
2023/08/23 04:18:26;;;;;;;9.70;4.80;;;15.80;99.90;;;;;;5032011;28;20071;-90
2023/08/23 04:20:59;;;;;;;9.80;4.93;;;15.70;99.90;;;;;;5031897;28;20037;-88
2023/08/23 04:23:25;;;;;;;9.68;5.03;;;15.80;99.90;;;;;;5015362;28;20370;-89
2023/08/23 04:25:51;;;;;;;11.82;5.05;;;15.70;99.90;;;;;;5031556;28;20044;-90
2023/08/23 04:28:16;;;;;;;9.80;4.50;;;15.70;99.90;;;;;;5015220;28;20120;-91
2023/08/23 04:30:42;;;;;;;11.18;4.80;;;15.70;99.90;;;;;;4999172;28;20121;-90
2023/08/23 04:33:10;;;;;;;9.88;5.07;;;15.70;99.90;;;;;;5015488;28;20402;-90
2023/08/23 04:35:36;;;;;;;10.32;4.65;;;15.70;99.90;;;;;;5031624;28;20105;-89
2023/08/23 04:38:01;;;;;;;9.65;4.53;;;15.70;99.90;;;;;;5031798;28;20415;-90
2023/08/23 04:40:28;;;;;;;10.52;4.57;;;15.70;99.90;;;;;;4995180;28;20049;-89
2023/08/23 04:42:53;;;;;;;9.63;4.22;;;15.70;99.90;;;;;;5003013;28;20533;-90
2023/08/23 04:45:19;;;;;;;8.52;4.18;;;15.70;99.90;;;;;;5031616;28;20083;-90
2023/08/23 04:47:45;;;;;;;10.48;4.22;;;15.70;99.90;;;;;;5032024;28;20072;-90
2023/08/23 04:50:11;;;;;;;10.05;4.38;;;15.70;99.90;;;;;;5015432;28;20041;-90
2023/08/23 04:52:37;;;;;;;9.10;4.05;;;15.70;99.90;;;;;;5031952;28;20482;-90
2023/08/23 04:55:04;;;;;;;9.40;4.53;;;15.80;99.90;;;;;;5048073;28;20033;-89
2023/08/23 04:57:30;;;;;;;10.50;3.90;;;15.80;99.90;;;;;;5014501;28;20040;-89
2023/08/23 04:59:57;;;;;;;10.15;4.78;;;15.80;99.90;;;;;;5014657;28;20056;-90
2023/08/23 05:02:23;;;;;;;10.93;5.45;;;15.80;99.90;;;;;;5047418;28;20439;-90
2023/08/23 05:04:49;;;;;;;11.52;5.60;;;15.90;99.90;;;;;;4998356;28;20116;-90
2023/08/23 05:07:14;;;;;;;12.35;6.80;;;15.90;99.90;;;;;;5030789;28;20454;-89
2023/08/23 05:09:40;;;;;;;13.02;7.25;;;16.00;99.90;;;;;;4998484;28;20052;-89
2023/08/23 05:12:06;;;;;;;13.70;7.35;;;16.00;99.90;;;;;;5030972;28;20464;-90
2023/08/23 05:14:32;;;;;;;15.55;7.95;;;16.00;99.90;;;;;;5030750;28;20048;-90
2023/08/23 05:16:58;;;;;;;14.60;8.02;;;16.10;99.90;;;;;;5014626;28;20041;-90
2023/08/23 05:19:24;;;;;;;16.58;8.60;;;16.10;99.90;;;;;;4998082;28;20546;-90
2023/08/23 05:21:50;;;;;;;14.60;8.43;;;16.10;99.90;;;;;;5014411;28;20123;-89
2023/08/23 05:24:15;;;;;;;16.98;8.68;;;16.20;99.90;;;;;;4997653;28;20037;-90
2023/08/23 05:26:41;;;;;;;14.80;8.35;;;16.20;99.90;;;;;;5014235;28;20148;-90
2023/08/23 05:29:07;;;;;;;14.77;8.60;;;16.20;99.90;;;;;;4997794;28;20041;-90
2023/08/23 05:31:33;;;;;;;13.57;6.88;;;16.20;99.90;;;;;;5030860;28;20037;-90
2023/08/23 05:33:58;;;;;;;17.20;8.63;;;16.30;99.90;;;;;;5030866;28;20398;-90
2023/08/23 05:36:24;;;;;;;14.20;7.63;;;16.30;99.90;;;;;;4997835;28;20486;-90
2023/08/23 05:38:50;;;;;;;13.57;7.30;;;16.30;99.90;;;;;;5030447;28;20124;-90
2023/08/23 05:41:16;;;;;;;16.67;7.43;;;16.30;99.90;;;;;;5014048;28;20495;-90
2023/08/23 05:43:42;;;;;;;13.40;7.18;;;16.40;99.90;;;;;;4997557;28;20102;-90
2023/08/23 05:46:08;;;;;;;14.05;7.85;;;16.40;99.90;;;;;;5030748;28;20036;-90
2023/08/23 05:48:35;;;;;;;14.55;8.50;;;16.40;99.90;;;;;;5030430;28;20361;-90
2023/08/23 05:51:04;;;;;;;14.63;7.57;;;16.40;99.90;;;;;;5030466;28;20073;-90
2023/08/23 05:53:30;;;;;;;13.38;7.38;;;16.40;99.90;;;;;;5030755;28;20120;-90
2023/08/23 05:55:56;;;;;;;14.82;7.53;;;16.40;99.90;;;;;;5049301;28;20448;-90
2023/08/23 05:58:22;;;;;;;15.23;7.32;;;16.50;99.90;;;;;;5034294;28;20119;-91
2023/08/23 06:00:48;;;;;;;13.00;6.90;;;16.50;99.90;;;;;;5017562;28;20090;-90
2023/08/23 06:03:15;;;;;;;12.70;7.13;;;16.60;99.90;;;;;;5033884;28;20037;-91
2023/08/23 06:05:41;;;;;;;13.45;7.30;;;16.60;99.90;;;;;;5033966;28;20041;-90
2023/08/23 06:08:08;;;;;;;13.27;7.03;;;16.70;99.90;;;;;;5033896;28;20428;-89
2023/08/23 06:10:34;;;;;;;11.90;6.40;;;16.80;99.90;;;;;;5050372;28;20068;-90
2023/08/23 06:13:00;;;;;;;13.20;6.75;;;16.80;99.90;;;;;;5001147;28;20087;-90
2023/08/23 06:15:26;;;;;;;14.23;7.28;;;16.90;99.90;;;;;;5033686;28;20128;-89
2023/08/23 06:17:53;;;;;;;12.63;7.15;;;16.90;99.90;;;;;;5033669;28;20053;-89
2023/08/23 06:20:19;;;;;;;13.65;7.13;;;17.10;99.90;;;;;;5050297;28;20049;-89
2023/08/23 06:22:45;;;;;;;14.85;7.00;;;17.10;99.90;;;;;;5033997;28;20155;-90
2023/08/23 06:25:11;;;;;;;15.10;8.15;;;17.10;99.90;;;;;;5017620;28;20523;-88
2023/08/23 06:27:37;;;;;;;13.95;7.70;;;17.20;99.90;;;;;;5050112;28;20063;-89
2023/08/23 06:30:06;;;;;;;13.98;7.20;;;17.30;99.90;;;;;;5000589;28;20460;-90
2023/08/23 06:32:32;;;;;;;15.32;7.88;;;17.30;99.90;;;;;;5033777;28;20040;-89
2023/08/23 06:34:58;;;;;;;17.90;7.95;;;17.30;99.90;;;;;;5033405;28;20159;-90
2023/08/23 06:37:23;;;;;;;15.13;8.20;;;17.30;99.90;;;;;;5033688;28;20075;-89
2023/08/23 06:39:50;;;;;;;14.00;7.72;;;17.30;99.90;;;;;;5016809;28;20452;-89
2023/08/23 06:42:19;;;;;;;14.98;8.85;;;17.40;99.90;;;;;;5033162;28;20095;-90
2023/08/23 06:44:45;;;;;;;14.27;7.93;;;17.50;99.90;;;;;;5017097;28;20044;-89
2023/08/23 06:47:10;;;;;;;14.98;7.90;;;17.60;99.90;;;;;;5033209;28;20052;-89
2023/08/23 06:49:36;;;;;;;16.27;8.07;;;17.60;99.90;;;;;;5032946;28;20071;-90
2023/08/23 06:52:02;;;;;;;13.45;7.68;;;17.70;99.90;;;;;;5033589;28;20041;-89
2023/08/23 06:54:28;;;;;;;14.35;7.40;;;17.70;99.90;;;;;;5033208;28;20150;-89
2023/08/23 06:56:54;;;;;;;14.18;8.40;;;17.70;99.90;;;;;;5033926;28;20513;-90
2023/08/23 06:59:19;;;;;;;16.08;8.55;;;17.70;99.90;;;;;;5033391;28;20040;-90
2023/08/23 07:01:47;;;;;;;14.07;8.55;;;17.80;99.90;;;;;;5001023;28;20128;-90
2023/08/23 07:04:13;;;;;;;15.38;8.13;;;17.90;99.90;;;;;;5033095;28;20089;-91
2023/08/23 07:06:38;;;;;;;15.80;8.75;;;18.10;99.90;;;;;;5032206;28;20041;-90
2023/08/23 07:09:04;;;;;;;14.32;8.13;;;18.20;99.90;;;;;;5015082;28;20036;-89
2023/08/23 07:11:30;;;;;;;16.30;8.45;;;18.40;99.90;;;;;;5013355;28;20065;-89
2023/08/23 07:13:56;;;;;;;15.55;8.32;;;18.50;99.90;;;;;;5016655;28;20072;-90
2023/08/23 07:16:22;;;;;;;15.43;8.52;;;18.60;99.90;;;;;;5017073;28;20171;-90
2023/08/23 07:18:47;;;;;;;16.60;8.13;;;18.70;99.90;;;;;;5032764;28;20037;-90
2023/08/23 07:21:14;;;;;;;15.15;8.35;;;18.80;99.90;;;;;;5033494;28;20056;-88
2023/08/23 07:23:40;;;;;;;15.25;7.50;;;18.90;99.90;;;;;;5016684;28;20439;-89
2023/08/23 07:26:06;;;;;;;13.88;7.82;;;19.10;99.90;;;;;;5000279;28;20033;-90
2023/08/23 07:28:31;;;;;;;16.60;8.35;;;19.30;99.90;;;;;;5016530;28;20041;-89
2023/08/23 07:30:58;;;;;;;13.65;7.22;;;19.20;99.90;;;;;;5016598;28;20044;-90
2023/08/23 07:33:26;;;;;;;13.82;7.80;;;19.30;99.90;;;;;;5016324;28;20114;-88
2023/08/23 07:35:57;;;;;;;13.77;7.95;;;19.40;99.90;;;;;;5049620;28;20406;-90
2023/08/23 07:38:23;;;;;;;12.52;7.57;;;19.50;99.90;;;;;;5000726;28;20033;-88
2023/08/23 07:40:49;;;;;;;14.32;7.60;;;19.60;99.90;;;;;;4999728;28;20049;-89
2023/08/23 07:43:15;;;;;;;12.48;7.47;;;19.70;99.90;;;;;;5049801;28;20565;-88
2023/08/23 07:45:40;;;;;;;12.60;7.13;;;19.80;99.90;;;;;;5016360;28;20542;-88
2023/08/23 07:48:06;;;;;;;17.05;8.18;;;20.00;99.90;;;;;;4999867;28;20040;-88
2023/08/23 07:50:32;;;;;;;13.77;7.38;;;20.00;99.90;;;;;;5000339;28;20486;-88
2023/08/23 07:52:58;;;;;;;12.73;6.28;;;20.10;99.90;;;;;;5049716;28;20498;-88
2023/08/23 07:55:23;;;;;;;13.18;6.95;;;20.10;99.90;;;;;;5032112;28;20111;-89
2023/08/23 07:57:49;;;;;;;12.35;6.53;;;20.10;99.90;;;;;;5048936;28;20045;-89
2023/08/23 08:00:15;;;;;;;12.90;6.32;;;20.10;99.90;;;;;;5015455;28;20045;-89
2023/08/23 08:02:41;;;;;;;12.25;6.47;;;20.00;99.90;;;;;;5031997;28;20124;-89
2023/08/23 08:05:07;;;;;;;11.90;6.15;;;20.00;99.90;;;;;;5031981;28;20116;-89
2023/08/23 08:07:33;;;;;;;11.73;5.50;;;20.00;99.90;;;;;;5015585;28;20051;-89
2023/08/23 08:09:59;;;;;;;12.45;5.95;;;20.10;99.90;;;;;;5032250;28;20037;-89
2023/08/23 08:12:25;;;;;;;12.32;5.53;;;20.40;99.90;;;;;;5031664;28;20406;-89
2023/08/23 08:14:51;;;;;;;13.63;6.15;;;20.40;99.90;;;;;;5032077;28;20052;-88
2023/08/23 08:17:16;;;;;;;12.27;5.68;;;20.50;99.90;;;;;;5015020;28;20133;-88
2023/08/23 08:19:42;;;;;;;10.80;5.28;;;20.80;99.90;;;;;;5015502;28;20278;-88
2023/08/23 08:22:08;;;;;;;10.77;5.32;;;20.80;99.90;;;;;;4999201;28;20532;-89
2023/08/23 08:24:33;;;;;;;9.68;4.78;;;21.00;99.90;;;;;;5047864;28;20434;-88
2023/08/23 08:27:01;;;;;;;9.73;4.47;;;21.30;99.90;;;;;;5015271;28;20063;-90
2023/08/23 08:29:26;;;;;;;10.18;4.00;;;21.20;99.90;;;;;;5015524;28;20055;-89
2023/08/23 08:31:52;;;;;;;12.27;4.05;;;21.40;99.90;;;;;;5015410;28;20041;-89
2023/08/23 08:34:18;;;;;;;9.65;3.67;;;21.50;99.90;;;;;;4998380;28;20472;-87
2023/08/23 08:36:44;;;;;;;8.25;3.30;;;21.60;99.90;;;;;;5015320;28;20041;-89
2023/08/23 08:39:10;;;;;;;9.25;4.10;;;21.60;99.90;;;;;;5031491;28;20366;-89
2023/08/23 08:41:35;;;;;;;9.70;3.80;;;21.70;99.90;;;;;;5014053;28;20548;-88
2023/08/23 08:44:02;;;;;;;9.43;3.63;;;21.80;99.90;;;;;;5031264;28;20057;-88
2023/08/23 08:46:28;;;;;;;9.55;3.40;;;22.00;99.90;;;;;;5031171;28;20041;-88
2023/08/23 08:48:54;;;;;;;9.45;3.20;;;22.10;99.90;;;;;;5031024;28;20458;-89
2023/08/23 08:51:20;;;;;;;8.25;3.45;;;22.10;99.90;;;;;;5014813;28;20047;-87
2023/08/23 08:53:52;;;;;;;9.98;4.40;;;22.20;99.90;;;;;;5047500;28;20048;-89
2023/08/23 08:56:19;;;;;;;9.55;3.80;;;22.30;99.90;;;;;;5031006;28;20040;-89
2023/08/23 08:58:46;;;;;;;8.07;3.50;;;22.50;99.90;;;;;;5014202;28;20410;-88
2023/08/23 09:01:14;;;;;;;9.02;3.78;;;22.50;99.90;;;;;;5024143;28;20041;-88
2023/08/23 09:03:40;;;;;;;9.27;4.18;;;22.60;99.90;;;;;;5030475;28;20041;-89
2023/08/23 09:06:07;;;;;;;9.82;3.85;;;22.60;99.90;;;;;;5031074;28;20047;-89
2023/08/23 09:08:34;;;;;;;10.38;4.32;;;22.70;99.90;;;;;;5047127;28;20041;-88
2023/08/23 09:10:59;;;;;;;10.60;4.07;;;22.90;99.90;;;;;;5011623;28;20086;-89
2023/08/23 09:13:25;;;;;;;9.35;3.65;;;22.90;99.90;;;;;;5012782;28;20530;-88
2023/08/23 09:15:51;;;;;;;9.43;4.00;;;23.00;99.90;;;;;;5047132;28;20529;-88
2023/08/23 09:18:20;;;;;;;9.55;3.97;;;23.10;99.90;;;;;;5013933;28;20171;-84
2023/08/23 09:20:47;;;;;;;10.35;4.07;;;23.10;99.90;;;;;;4997754;28;20040;-90
2023/08/23 09:23:12;;;;;;;10.50;4.07;;;23.30;99.90;;;;;;5046715;28;20514;-89
2023/08/23 09:25:38;;;;;;;10.95;4.85;;;23.50;99.90;;;;;;5030403;28;20047;-90
2023/08/23 09:28:04;;;;;;;10.25;4.03;;;23.50;99.90;;;;;;5030090;28;20041;-89
2023/08/23 09:30:32;;;;;;;11.20;3.78;;;23.60;99.90;;;;;;5048178;28;20099;-89
2023/08/23 09:33:01;;;;;;;9.50;3.58;;;23.80;99.90;;;;;;5051036;28;20032;-89
2023/08/23 09:35:28;;;;;;;9.63;4.03;;;23.80;99.90;;;;;;5034710;28;20056;-88
2023/08/23 09:37:54;;;;;;;9.88;4.13;;;23.90;99.90;;;;;;5018468;28;20510;-91
2023/08/23 09:40:26;;;;;;;10.15;4.13;;;23.90;99.90;;;;;;5017841;28;20056;-88
2023/08/23 09:42:53;;;;;;;12.45;4.40;;;24.00;99.90;;;;;;5034577;28;20398;-88
2023/08/23 09:45:21;;;;;;;10.10;4.57;;;24.10;99.90;;;;;;5018416;28;20074;-87
2023/08/23 09:47:51;;;;;;;8.75;3.95;;;23.90;99.90;;;;;;5033916;28;20049;-87
2023/08/23 09:50:22;;;;;;;9.57;3.85;;;23.90;99.90;;;;;;5034098;28;20039;-87
2023/08/23 09:52:53;;;;;;;9.15;4.13;;;23.80;99.90;;;;;;5034653;28;20048;-87
2023/08/23 09:55:20;;;;;;;8.90;4.07;;;23.70;99.90;;;;;;5050725;28;20387;-87
2023/08/23 09:57:47;;;;;;;10.73;3.88;;;23.50;99.90;;;;;;5034275;28;20045;-87
2023/08/23 10:00:14;;;;;;;8.70;3.67;;;23.30;99.90;;;;;;5017716;28;20132;-86
2023/08/23 10:02:41;;;;;;;10.00;4.03;;;23.20;99.90;;;;;;5050561;28;20132;-85
2023/08/23 10:05:11;;;;;;;9.88;3.75;;;23.10;99.90;;;;;;5001849;28;20421;-88
2023/08/23 10:07:39;;;;;;;9.57;3.70;;;23.30;99.90;;;;;;5050628;28;20106;-85
2023/08/23 10:10:06;;;;;;;9.20;4.22;;;23.30;99.90;;;;;;5017906;28;20052;-86
2023/08/23 10:12:34;;;;;;;10.65;4.10;;;23.50;99.90;;;;;;5033742;28;20033;-86
2023/08/23 10:15:01;;;;;;;8.75;3.95;;;23.50;99.90;;;;;;5050726;28;20068;-88
2023/08/23 10:17:27;;;;;;;9.35;3.90;;;23.70;99.90;;;;;;5017583;28;20052;-86
2023/08/23 10:19:53;;;;;;;10.75;3.65;;;23.80;99.90;;;;;;5001294;28;20094;-87
2023/08/23 10:22:19;;;;;;;10.90;4.20;;;23.80;99.90;;;;;;5017369;28;20486;-88
2023/08/23 10:24:48;;;;;;;9.32;4.47;;;23.90;99.90;;;;;;5013526;28;20121;-87
2023/08/23 10:27:16;;;;;;;10.85;4.10;;;24.10;99.90;;;;;;5010118;28;20040;-88
2023/08/23 10:29:42;;;;;;;12.80;5.00;;;24.10;99.90;;;;;;5033461;28;20033;-88
2023/08/23 10:32:13;;;;;;;11.15;4.65;;;24.00;99.90;;;;;;5033864;28;20043;-87
2023/08/23 10:34:40;;;;;;;12.23;5.10;;;23.80;99.90;;;;;;5033518;28;20029;-88
2023/08/23 10:37:21;;;;;;;9.55;4.65;;;23.60;99.90;;;;;;5017310;28;20048;-88
2023/08/23 10:39:53;;;;;;;9.65;4.78;;;23.40;99.90;;;;;;5049808;28;20064;-87
2023/08/23 10:42:21;;;;;;;11.57;5.10;;;23.10;99.90;;;;;;5033076;28;20033;-87
2023/08/23 10:44:59;;;;;;;10.45;4.57;;;22.90;99.90;;;;;;5033155;28;20108;-87
2023/08/23 10:47:26;;;;;;;9.68;4.78;;;22.70;99.90;;;;;;5033297;28;20116;-87
2023/08/23 10:49:52;;;;;;;10.30;4.88;;;22.80;99.90;;;;;;5017190;28;20041;-87
2023/08/23 10:52:18;;;;;;;11.27;4.88;;;23.00;99.90;;;;;;5016912;28;20521;-86
2023/08/23 10:54:43;;;;;;;11.80;5.10;;;23.40;99.90;;;;;;5016846;28;20298;-88
2023/08/23 10:57:09;;;;;;;12.18;4.90;;;23.30;99.90;;;;;;5017421;28;20040;-87
2023/08/23 10:59:36;;;;;;;10.32;4.28;;;23.60;99.90;;;;;;5017142;28;20076;-87
2023/08/23 11:02:02;;;;;;;10.00;4.60;;;23.90;99.90;;;;;;5017650;28;20502;-87
2023/08/23 11:04:27;;;;;;;8.95;3.97;;;24.10;99.90;;;;;;5016622;28;20053;-87
2023/08/23 11:06:54;;;;;;;9.50;4.35;;;24.40;99.90;;;;;;5049750;28;20079;-87
2023/08/23 11:09:20;;;;;;;10.43;4.40;;;24.30;99.90;;;;;;5032625;28;20124;-87
2023/08/23 11:11:46;;;;;;;9.98;4.47;;;24.50;99.90;;;;;;5049560;28;20104;-88
2023/08/23 11:14:11;;;;;;;9.38;4.45;;;24.50;99.90;;;;;;5032759;28;20481;-88
2023/08/23 11:16:38;;;;;;;10.35;4.43;;;24.50;99.90;;;;;;5033277;28;20039;-87
2023/08/23 11:19:06;;;;;;;9.45;3.97;;;24.70;99.90;;;;;;5033119;28;20048;-88
2023/08/23 11:21:35;;;;;;;10.27;3.80;;;24.70;99.90;;;;;;5049791;28;20411;-87
2023/08/23 11:24:03;;;;;;;10.63;4.65;;;24.70;99.90;;;;;;5032716;28;20045;-87
2023/08/23 11:26:33;;;;;;;9.85;4.45;;;24.80;99.90;;;;;;5032713;28;20045;-88
2023/08/23 11:29:00;;;;;;;10.05;4.25;;;24.80;99.90;;;;;;5016758;28;20045;-88
2023/08/23 11:31:26;;;;;;;9.38;4.30;;;24.90;99.90;;;;;;5016313;28;20040;-87
2023/08/23 11:33:53;;;;;;;8.45;2.92;;;24.90;99.90;;;;;;5032363;28;20044;-89
2023/08/23 11:36:19;;;;;;;7.65;2.80;;;24.90;99.90;;;;;;5049307;28;20041;-87
2023/08/23 11:38:49;;;;;;;8.50;3.50;;;25.00;99.90;;;;;;5016229;28;20502;-87
2023/08/23 11:41:25;;;;;;;10.27;3.60;;;24.90;99.90;;;;;;5049381;28;20241;-86
2023/08/23 11:43:53;;;;;;;8.77;3.28;;;24.80;99.90;;;;;;5032810;28;20491;-87
2023/08/23 11:46:19;;;;;;;8.18;2.80;;;24.80;99.90;;;;;;5033138;28;20063;-88
2023/08/23 11:48:44;;;;;;;8.80;2.65;;;24.80;99.90;;;;;;4999465;28;20483;-88
2023/08/23 11:51:10;;;;;;;10.10;2.95;;;24.90;99.90;;;;;;5032581;28;20122;-88
2023/08/23 11:53:36;;;;;;;9.32;2.72;;;24.70;99.90;;;;;;5015506;28;20470;-88
2023/08/23 11:56:05;;;;;;;8.48;2.75;;;24.70;99.90;;;;;;5016133;28;20041;-89
2023/08/23 11:58:31;;;;;;;7.78;2.85;;;24.70;99.90;;;;;;5032152;28;20044;-88
2023/08/23 12:00:58;;;;;;;10.88;3.28;;;24.60;99.90;;;;;;4999170;28;20044;-89
2023/08/23 12:03:24;;;;;;;9.38;3.40;;;25.10;99.90;;;;;;5015460;28;20051;-87
2023/08/23 12:05:49;;;;;;;7.28;2.67;;;24.30;99.90;;;;;;5048382;28;20041;-88
2023/08/23 12:08:15;;;;;;;8.80;3.17;;;24.10;99.90;;;;;;5031845;28;20429;-87
2023/08/23 12:10:41;;;;;;;10.75;3.17;;;24.00;99.90;;;;;;5031776;28;20474;-86
2023/08/23 12:13:07;;;;;;;8.02;2.53;;;23.90;99.90;;;;;;5024673;28;20099;-87
2023/08/23 12:15:32;;;;;;;8.13;2.72;;;23.70;99.90;;;;;;4999014;28;20128;-86
2023/08/23 12:17:58;;;;;;;7.07;2.60;;;23.60;99.90;;;;;;5015336;28;20048;-88
2023/08/23 12:20:24;;;;;;;8.93;2.40;;;23.50;99.90;;;;;;5015055;28;20092;-87
2023/08/23 12:22:50;;;;;;;8.75;2.60;;;23.40;99.90;;;;;;4998774;28;20099;-87
2023/08/23 12:25:16;;;;;;;7.90;2.50;;;23.40;99.90;;;;;;5031440;28;20048;-87
2023/08/23 12:27:42;;;;;;;7.38;2.17;;;23.30;99.90;;;;;;5031452;28;20340;-87
2023/08/23 12:30:12;;;;;;;6.32;2.20;;;23.30;99.90;;;;;;5015429;28;20399;-87
2023/08/23 12:32:38;;;;;;;5.90;2.05;;;23.30;99.90;;;;;;5015878;28;20044;-87
2023/08/23 12:35:04;;;;;;;6.53;2.00;;;23.50;99.90;;;;;;5014893;28;20095;-86
2023/08/23 12:37:30;;;;;;;7.05;2.10;;;23.60;99.90;;;;;;5015676;28;20036;-87